Time;durP1;ratioP1;P1;durP2;ratioP2;P2;SDS_P1;SDS_P2;PMS_P1;PMS_P2;Temp;Humidity;BMP_temperature;BMP_pressure;BME280_temperature;BME280_humidity;BME280_pressure;Samples;Min_cycle;Max_cycle;Signal;HPM_P1;HPM_P2
2021/07/16 00:01:09;;;;;;;18.70;9.90;;;;;;;22.31;68.84;101199.09;5039969;28;20204;-65
2021/07/16 00:03:34;;;;;;;18.00;10.67;;;;;;;22.28;68.36;101210.69;5039702;28;20205;-65
2021/07/16 00:05:59;;;;;;;16.50;10.20;;;;;;;21.97;69.82;101208.13;5040389;28;20528;-65
2021/07/16 00:08:25;;;;;;;16.90;9.57;;;;;;;22.02;69.38;101209.72;5039943;28;20228;-64
2021/07/16 00:10:50;;;;;;;15.30;10.13;;;;;;;22.16;68.94;101214.63;5039941;28;20175;-65
2021/07/16 00:13:15;;;;;;;17.10;9.83;;;;;;;22.12;68.99;101209.44;5040053;28;20167;-65
2021/07/16 00:15:41;;;;;;;14.57;9.33;;;;;;;22.23;67.88;101212.63;5039714;28;20229;-65
2021/07/16 00:18:06;;;;;;;17.97;9.50;;;;;;;22.20;68.43;101216.25;5039621;28;20255;-65
2021/07/16 00:20:31;;;;;;;17.80;9.23;;;;;;;22.03;68.79;101213.25;5040002;28;20175;-65
2021/07/16 00:22:57;;;;;;;17.10;8.57;;;;;;;22.31;68.81;101212.38;5039498;28;20524;-65
2021/07/16 00:25:22;;;;;;;18.77;8.00;;;;;;;22.16;68.44;101217.28;5039310;28;20336;-65
2021/07/16 00:27:47;;;;;;;15.07;9.00;;;;;;;22.27;67.80;101222.25;5039916;28;20190;-65
2021/07/16 00:30:13;;;;;;;17.20;8.53;;;;;;;22.24;68.18;101216.16;5039465;28;20194;-65
2021/07/16 00:32:39;;;;;;;17.30;8.90;;;;;;;21.79;69.21;101223.69;5039167;28;20177;-65
2021/07/16 00:35:05;;;;;;;14.83;8.30;;;;;;;22.01;68.82;101220.38;5039922;28;20428;-65
2021/07/16 00:37:31;;;;;;;17.53;8.03;;;;;;;22.08;68.06;101221.94;5039350;28;20417;-65
2021/07/16 00:39:56;;;;;;;18.50;8.43;;;;;;;22.49;66.77;101210.97;5039359;28;20196;-65
2021/07/16 00:42:21;;;;;;;14.40;8.50;;;;;;;22.19;67.42;101217.16;5039574;28;20185;-65
2021/07/16 00:44:46;;;;;;;14.13;8.60;;;;;;;22.15;67.65;101212.88;5039225;28;20213;-65
2021/07/16 00:47:12;;;;;;;13.23;8.80;;;;;;;22.46;66.53;101222.56;5039074;28;20170;-65
2021/07/16 00:49:37;;;;;;;17.20;8.87;;;;;;;22.21;67.45;101225.94;5039326;28;20167;-65
2021/07/16 00:52:03;;;;;;;15.70;9.03;;;;;;;22.09;67.17;101228.13;5039003;28;20559;-64
2021/07/16 00:54:29;;;;;;;20.17;9.93;;;;;;;21.67;68.36;101226.69;5038708;28;20174;-64
2021/07/16 00:56:54;;;;;;;14.77;8.13;;;;;;;21.83;68.53;101216.50;5038185;28;20515;-65
2021/07/16 00:59:20;;;;;;;12.90;8.27;;;;;;;21.80;67.82;101213.97;5038390;28;20261;-66
2021/07/16 01:01:46;;;;;;;12.60;8.40;;;;;;;22.09;66.99;101209.53;5038321;28;20173;-65
2021/07/16 01:04:11;;;;;;;14.73;8.60;;;;;;;22.03;66.99;101214.13;5038947;28;20584;-66
2021/07/16 01:06:37;;;;;;;10.90;8.03;;;;;;;21.72;67.73;101214.19;5038839;28;20186;-66
2021/07/16 01:09:04;;;;;;;18.40;8.47;;;;;;;21.66;67.84;101215.22;5039013;28;20170;-66
2021/07/16 01:11:30;;;;;;;19.37;8.00;;;;;;;21.67;68.14;101213.44;5039317;28;20178;-66
2021/07/16 01:13:55;;;;;;;13.77;8.60;;;;;;;21.46;68.40;101217.53;5038583;28;20425;-66
2021/07/16 01:16:21;;;;;;;14.67;8.63;;;;;;;21.38;68.64;101220.41;5038655;28;20174;-70
2021/07/16 01:18:46;;;;;;;20.00;8.87;;;;;;;21.52;68.46;101212.91;5043290;28;20871;-66
2021/07/16 01:21:13;;;;;;;14.87;8.80;;;;;;;21.14;69.41;101211.34;5069379;28;20173;-65
2021/07/16 01:23:38;;;;;;;19.37;8.00;;;;;;;21.47;68.40;101222.81;5068072;28;20241;-65
2021/07/16 01:26:05;;;;;;;20.90;8.67;;;;;;;21.53;67.74;101227.09;5058011;28;20656;-65
2021/07/16 01:28:30;;;;;;;11.50;8.40;;;;;;;21.23;68.78;101220.81;5073127;28;20185;-66
2021/07/16 01:30:56;;;;;;;19.80;9.53;;;;;;;21.01;69.30;101227.59;5078031;28;20439;-67
2021/07/16 01:33:21;;;;;;;16.63;7.50;;;;;;;20.88;70.11;101225.25;5078537;28;20176;-66
2021/07/16 01:35:47;;;;;;;15.30;8.30;;;;;;;21.19;69.15;101228.88;5073567;28;20173;-66
2021/07/16 01:38:13;;;;;;;14.80;8.20;;;;;;;21.00;70.02;101238.22;5058208;28;20177;-65
2021/07/16 01:40:39;;;;;;;15.03;7.70;;;;;;;21.13;69.15;101230.81;5058508;28;20408;-66
2021/07/16 01:43:09;;;;;;;16.13;8.50;;;;;;;21.02;70.24;101225.78;5057873;28;20184;-66
2021/07/16 01:45:38;;;;;;;17.40;8.07;;;;;;;20.79;69.95;101237.84;5058516;28;20188;-66
2021/07/16 01:48:09;;;;;;;17.30;9.60;;;;;;;21.10;68.79;101230.91;5058412;28;20800;-66
2021/07/16 01:50:35;;;;;;;17.23;7.97;;;;;;;21.15;68.60;101235.16;5057884;28;20439;-66
2021/07/16 01:53:01;;;;;;;18.47;8.90;;;;;;;21.35;68.25;101234.63;5063504;28;20415;-66
2021/07/16 01:55:29;;;;;;;12.80;8.47;;;;;;;21.29;68.12;101241.88;5078219;28;20437;-66
2021/07/16 01:57:56;;;;;;;15.00;8.37;;;;;;;21.23;68.30;101242.94;5077980;28;20434;-66
2021/07/16 02:00:28;;;;;;;17.60;11.20;;;;;;;21.37;67.97;101247.84;5077782;28;20404;-66
2021/07/16 02:03:02;;;;;;;16.93;8.67;;;;;;;21.25;67.94;101248.19;5077692;28;20485;-66
2021/07/16 02:05:28;;;;;;;13.00;8.40;;;;;;;20.92;69.06;101253.44;5077622;28;20732;-65
2021/07/16 02:07:58;;;;;;;11.30;8.17;;;;;;;21.17;68.53;101251.03;5077911;28;20411;-65
2021/07/16 02:10:25;;;;;;;21.50;10.60;;;;;;;21.23;67.71;101247.34;5077711;28;20407;-65
2021/07/16 02:12:51;;;;;;;16.67;8.97;;;;;;;20.97;68.33;101248.88;5077482;28;20430;-65
2021/07/16 02:15:22;;;;;;;13.87;8.63;;;;;;;21.25;68.08;101243.72;5078026;28;20438;-65
2021/07/16 02:17:48;;;;;;;19.93;11.20;;;;;;;21.34;67.63;101246.13;5077746;28;20440;-66
2021/07/16 02:20:25;;;;;;;15.70;9.37;;;;;;;21.24;68.04;101241.13;5077607;28;20727;-66
2021/07/16 02:22:52;;;;;;;14.87;8.40;;;;;;;21.28;67.36;101250.75;5077465;28;20286;-66
2021/07/16 02:25:18;;;;;;;16.57;10.30;;;;;;;21.18;67.75;101245.69;5077193;28;20519;-65
2021/07/16 02:27:45;;;;;;;16.53;9.00;;;;;;;20.79;69.24;101251.09;5066854;28;20427;-65
2021/07/16 02:30:10;;;;;;;15.53;9.13;;;;;;;20.90;68.38;101257.91;5057440;28;20194;-67
2021/07/16 02:32:36;;;;;;;19.30;10.10;;;;;;;20.94;68.18;101256.94;5057448;28;20941;-65
2021/07/16 02:35:01;;;;;;;17.67;9.70;;;;;;;20.79;69.09;101267.00;5057883;28;20166;-66
2021/07/16 02:37:26;;;;;;;14.20;9.30;;;;;;;20.82;68.30;101259.00;5057467;28;20221;-66
2021/07/16 02:39:52;;;;;;;16.67;9.10;;;;;;;20.86;68.31;101262.41;5057482;28;20522;-66
2021/07/16 02:42:17;;;;;;;16.80;10.30;;;;;;;20.84;68.76;101267.75;5057631;28;20436;-66
2021/07/16 02:44:42;;;;;;;22.03;11.40;;;;;;;20.75;68.87;101277.72;5057254;28;20586;-65
2021/07/16 02:47:08;;;;;;;18.33;10.13;;;;;;;20.51;69.88;101275.59;5057352;28;20173;-66
2021/07/16 02:49:33;;;;;;;13.63;10.03;;;;;;;20.15;70.62;101277.28;5057806;28;20255;-66
2021/07/16 02:51:58;;;;;;;17.77;9.17;;;;;;;20.50;69.54;101278.28;5057308;28;20186;-65
2021/07/16 02:54:24;;;;;;;17.03;9.33;;;;;;;20.50;69.40;101278.28;5057163;28;20169;-66
2021/07/16 02:56:49;;;;;;;13.93;9.83;;;;;;;20.42;69.95;101281.09;5057624;28;20205;-65
2021/07/16 02:59:14;;;;;;;13.47;9.37;;;;;;;20.52;69.33;101279.94;5057237;28;20170;-65
2021/07/16 03:01:55;;;;;;;17.27;10.00;;;;;;;20.38;70.03;101284.72;5057442;28;20542;-65
2021/07/16 03:04:21;;;;;;;19.30;10.47;;;;;;;20.73;68.94;101285.72;5056962;28;20205;-65
2021/07/16 03:06:46;;;;;;;18.73;10.90;;;;;;;20.66;69.20;101278.75;5057217;28;20446;-66
2021/07/16 03:09:12;;;;;;;15.07;9.60;;;;;;;20.75;69.33;101285.66;5057388;28;20189;-66
2021/07/16 03:11:37;;;;;;;18.27;9.50;;;;;;;20.27;70.62;101294.66;5057166;28;20223;-66
2021/07/16 03:14:04;;;;;;;16.47;9.53;;;;;;;20.65;69.69;101295.59;5057069;28;20253;-65
2021/07/16 03:16:29;;;;;;;22.43;12.27;;;;;;;20.31;70.63;101298.97;5058796;28;20422;-64
2021/07/16 03:18:57;;;;;;;12.90;9.20;;;;;;;20.55;69.58;101300.19;5057640;28;20438;-65
2021/07/16 03:21:22;;;;;;;18.70;9.93;;;;;;;20.75;68.71;101294.47;5060617;28;20449;-65
2021/07/16 03:23:48;;;;;;;14.57;9.97;;;;;;;20.71;68.50;101294.59;5060453;28;20483;-66
2021/07/16 03:26:13;;;;;;;17.90;10.00;;;;;;;20.43;69.91;101304.03;5060637;28;20181;-66
2021/07/16 03:28:38;;;;;;;17.93;9.10;;;;;;;20.58;69.18;101308.09;5078810;28;20185;-66
2021/07/16 03:31:04;;;;;;;19.47;9.73;;;;;;;20.50;69.48;101308.28;5080425;28;20235;-66
2021/07/16 03:33:30;;;;;;;18.97;10.30;;;;;;;20.61;68.82;101304.50;5078876;28;20184;-66
2021/07/16 03:35:55;;;;;;;16.30;10.23;;;;;;;20.53;69.19;101309.97;5061116;28;20180;-66
2021/07/16 03:38:20;;;;;;;17.17;9.10;;;;;;;20.44;69.76;101305.75;5060423;28;20243;-65
2021/07/16 03:40:52;;;;;;;19.27;9.43;;;;;;;20.61;68.72;101304.50;5060315;28;20174;-67
2021/07/16 03:43:17;;;;;;;22.93;10.80;;;;;;;20.58;68.95;101304.56;5060698;28;20165;-65
2021/07/16 03:45:42;;;;;;;16.43;10.30;;;;;;;20.35;69.58;101308.63;5060257;28;20523;-66
2021/07/16 03:48:08;;;;;;;18.10;10.03;;;;;;;20.53;69.16;101305.53;5060416;28;20539;-65
2021/07/16 03:50:33;;;;;;;21.20;9.60;;;;;;;20.52;69.45;101308.22;5060935;28;20260;-65
2021/07/16 03:52:58;;;;;;;17.03;9.73;;;;;;;20.69;68.77;101305.25;5060112;28;20173;-65
2021/07/16 03:55:24;;;;;;;19.47;9.73;;;;;;;21.15;67.33;101296.16;5060476;28;20307;-66
2021/07/16 03:57:50;;;;;;;18.77;10.10;;;;;;;21.09;67.19;101295.44;5060543;28;20180;-65
2021/07/16 04:00:18;;;;;;;19.47;10.30;;;;;;;20.56;68.66;101314.34;5059300;28;20177;-65
2021/07/16 04:02:44;;;;;;;19.33;10.10;;;;;;;20.80;68.14;101313.78;5059130;28;20455;-65
2021/07/16 04:05:10;;;;;;;24.53;10.00;;;;;;;20.82;67.61;101306.69;5060330;28;20451;-66
2021/07/16 04:07:41;;;;;;;16.70;8.63;;;;;;;20.70;68.46;101312.25;5059885;28;20268;-65
2021/07/16 04:10:10;;;;;;;16.07;9.50;;;;;;;20.64;68.27;101321.19;5059868;28;20575;-65
2021/07/16 04:12:36;;;;;;;24.00;9.23;;;;;;;20.96;67.82;101313.41;5058877;28;20467;-65
2021/07/16 04:15:01;;;;;;;21.90;9.00;;;;;;;20.99;67.29;101308.06;5059694;28;20678;-66
2021/07/16 04:17:26;;;;;;;14.27;8.37;;;;;;;20.71;68.46;101316.66;5060048;28;20422;-66
2021/07/16 04:19:53;;;;;;;19.77;10.17;;;;;;;20.68;68.75;101314.94;5059504;28;20299;-66
2021/07/16 04:22:19;;;;;;;15.80;8.80;;;;;;;20.64;68.55;101318.53;5059429;28;20580;-65
2021/07/16 04:24:45;;;;;;;15.90;8.60;;;;;;;20.99;67.52;101313.34;5059591;28;20514;-66
2021/07/16 04:27:12;;;;;;;22.00;9.43;;;;;;;20.97;67.30;101304.56;5059620;28;20444;-66
2021/07/16 04:29:38;;;;;;;14.00;8.23;;;;;;;21.38;65.20;101310.59;5059503;28;20189;-66
2021/07/16 04:32:04;;;;;;;15.93;8.40;;;;;;;21.40;65.27;101311.41;5058201;28;20412;-66
2021/07/16 04:34:31;;;;;;;15.67;8.70;;;;;;;21.77;64.12;101310.47;5059137;28;20415;-66
2021/07/16 04:36:57;;;;;;;13.23;8.50;;;;;;;21.40;65.59;101321.16;5059750;28;20492;-66
2021/07/16 04:39:22;;;;;;;16.47;8.10;;;;;;;21.12;66.25;101329.81;5059398;28;20466;-66
2021/07/16 04:41:48;;;;;;;19.03;9.07;;;;;;;21.15;65.94;101330.63;5059258;28;20431;-66
2021/07/16 04:44:13;;;;;;;16.60;8.23;;;;;;;21.32;65.44;101329.31;5059320;28;20197;-66
2021/07/16 04:46:38;;;;;;;18.20;8.60;;;;;;;21.75;63.99;101330.84;5059098;28;20182;-65
2021/07/16 04:49:04;;;;;;;17.17;9.10;;;;;;;21.31;65.15;101340.81;5058948;28;20201;-65
2021/07/16 04:51:31;;;;;;;24.00;9.33;;;;;;;21.35;65.60;101345.13;5059073;28;20165;-65
2021/07/16 04:53:58;;;;;;;21.20;9.20;;;;;;;21.43;65.55;101344.94;5058818;28;20256;-65
2021/07/16 04:56:24;;;;;;;14.67;8.90;;;;;;;21.63;64.34;101336.50;5058971;28;20408;-65
2021/07/16 04:58:50;;;;;;;16.43;9.50;;;;;;;21.87;63.62;101340.25;5059329;28;20478;-65
2021/07/16 05:01:16;;;;;;;20.40;8.60;;;;;;;21.29;65.94;101340.88;5058820;28;20420;-65
2021/07/16 05:03:41;;;;;;;21.57;9.27;;;;;;;22.27;62.94;101335.56;5058535;28;20455;-65
2021/07/16 05:06:07;;;;;;;18.00;8.87;;;;;;;22.15;63.30;101340.34;5058967;28;20423;-65
2021/07/16 05:08:32;;;;;;;13.23;8.10;;;;;;;22.10;63.40;101341.41;5058726;28;20181;-65
2021/07/16 05:10:57;;;;;;;17.23;8.70;;;;;;;21.85;64.59;101339.41;5058544;28;20473;-65
2021/07/16 05:13:24;;;;;;;18.67;8.00;;;;;;;21.97;64.08;101343.50;5058768;28;20165;-65
2021/07/16 05:15:50;;;;;;;24.57;10.50;;;;;;;22.54;61.48;101342.75;5058551;28;20199;-67
2021/07/16 05:18:16;;;;;;;19.83;8.23;;;;;;;22.80;60.92;101338.41;5058430;28;20916;-66
2021/07/16 05:20:41;;;;;;;17.63;8.73;;;;;;;22.44;61.69;101335.09;5059151;28;20512;-65
2021/07/16 05:23:07;;;;;;;21.53;8.53;;;;;;;22.75;60.61;101345.66;5058125;28;20473;-66
2021/07/16 05:25:33;;;;;;;20.10;8.33;;;;;;;22.26;61.82;101341.78;5057617;28;20292;-65
2021/07/16 05:27:58;;;;;;;16.93;8.37;;;;;;;22.91;60.40;101339.81;5058561;28;20215;-66
2021/07/16 05:30:23;;;;;;;14.10;8.53;;;;;;;23.54;58.13;101337.72;5058179;28;20833;-66
2021/07/16 05:32:49;;;;;;;14.70;8.50;;;;;;;25.62;52.56;101319.88;5058080;28;20551;-66
2021/07/16 05:35:14;;;;;;;15.33;7.83;;;;;;;24.51;54.66;101338.63;5058620;28;20245;-66
2021/07/16 05:37:39;;;;;;;19.03;8.77;;;;;;;25.00;54.01;101339.34;5058276;28;20170;-66
2021/07/16 05:40:05;;;;;;;14.67;7.90;;;;;;;24.05;56.46;101347.44;5058250;28;20169;-66
2021/07/16 05:42:31;;;;;;;21.87;8.20;;;;;;;23.72;57.25;101344.22;5057838;28;20184;-65
2021/07/16 05:44:56;;;;;;;18.03;7.40;;;;;;;24.53;54.89;101340.31;5057970;28;20785;-65
2021/07/16 05:47:22;;;;;;;13.17;7.37;;;;;;;23.75;57.62;101349.44;5057834;28;20231;-65
2021/07/16 05:49:49;;;;;;;23.63;8.53;;;;;;;24.26;56.08;101352.94;5058345;28;20193;-65
2021/07/16 05:52:14;;;;;;;15.27;7.67;;;;;;;23.96;57.14;101360.25;5057860;28;20416;-67
2021/07/16 05:54:39;;;;;;;18.90;8.63;;;;;;;24.55;55.91;101361.59;5058049;28;20426;-66
2021/07/16 05:57:05;;;;;;;14.67;8.90;;;;;;;25.08;53.73;101360.38;5058359;28;20169;-66
2021/07/16 05:59:30;;;;;;;18.93;8.40;;;;;;;24.88;53.46;101369.19;5057918;28;20176;-66
2021/07/16 06:01:55;;;;;;;16.20;7.90;;;;;;;24.43;55.38;101370.91;5057907;28;20435;-65
2021/07/16 06:04:21;;;;;;;19.23;8.83;;;;;;;24.16;56.37;101376.34;5057823;28;20240;-65
2021/07/16 06:06:47;;;;;;;15.70;7.60;;;;;;;24.34;55.94;101380.16;5057481;28;20260;-65
2021/07/16 06:09:12;;;;;;;15.50;7.60;;;;;;;24.46;55.30;101368.13;5057415;28;20161;-65
2021/07/16 06:11:38;;;;;;;14.13;7.40;;;;;;;26.00;51.08;101360.88;5058431;28;20400;-67
2021/07/16 06:14:03;;;;;;;17.07;7.37;;;;;;;25.98;51.95;101356.53;5056918;28;20208;-66
2021/07/16 06:16:29;;;;;;;16.07;8.20;;;;;;;25.26;52.76;101364.06;5065981;28;20177;-66
2021/07/16 06:18:54;;;;;;;17.60;7.77;;;;;;;26.70;49.13;101365.72;5071807;28;20527;-65
2021/07/16 06:21:19;;;;;;;20.37;7.80;;;;;;;26.69;49.01;101363.97;5057306;28;20170;-65
2021/07/16 06:23:46;;;;;;;15.77;7.50;;;;;;;26.79;48.51;101359.06;5067602;28;20540;-66
2021/07/16 06:26:11;;;;;;;16.10;7.13;;;;;;;27.74;46.79;101364.13;5077681;28;20208;-66
2021/07/16 06:28:40;;;;;;;15.90;6.53;;;;;;;28.71;44.46;101366.94;5077417;28;20415;-67
2021/07/16 06:31:05;;;;;;;14.80;7.00;;;;;;;29.34;42.74;101362.41;5076327;28;20197;-65
2021/07/16 06:33:30;;;;;;;14.50;6.80;;;;;;;28.56;44.33;101368.63;5057732;28;20400;-66
2021/07/16 06:35:56;;;;;;;14.57;7.17;;;;;;;27.37;47.15;101371.38;5057422;28;20177;-67
2021/07/16 06:38:21;;;;;;;13.87;7.30;;;;;;;26.91;48.60;101374.50;5057411;28;20496;-66
2021/07/16 06:40:46;;;;;;;12.20;6.80;;;;;;;25.94;51.09;101382.53;5057646;28;20194;-66
2021/07/16 06:43:11;;;;;;;20.33;7.10;;;;;;;26.12;50.91;101380.00;5057130;28;20173;-65
2021/07/16 06:45:37;;;;;;;23.47;7.90;;;;;;;25.60;51.67;101385.81;5057197;28;20308;-66
2021/07/16 06:48:04;;;;;;;20.07;7.80;;;;;;;26.17;50.38;101384.22;5057749;28;20177;-66
2021/07/16 06:50:30;;;;;;;20.33;7.90;;;;;;;27.26;48.22;101377.25;5037460;28;20185;-66
2021/07/16 06:52:55;;;;;;;15.10;7.23;;;;;;;29.80;41.94;101377.56;5037273;28;20417;-66
2021/07/16 06:55:20;;;;;;;16.13;7.37;;;;;;;28.30;45.20;101382.63;5040143;28;20532;-66
2021/07/16 06:57:45;;;;;;;20.80;7.50;;;;;;;28.03;45.08;101385.84;5041150;28;20224;-66
2021/07/16 07:00:11;;;;;;;11.03;6.70;;;;;;;28.21;45.24;101398.25;5041105;28;20185;-67
2021/07/16 07:02:36;;;;;;;12.67;6.33;;;;;;;28.33;44.88;101393.16;5041275;28;20201;-69
2021/07/16 07:05:02;;;;;;;14.70;7.67;;;;;;;31.19;39.19;101397.47;5040815;28;20256;-69
2021/07/16 07:07:28;;;;;;;17.67;6.80;;;;;;;30.91;39.52;101389.38;5040843;28;20532;-68
2021/07/16 07:09:53;;;;;;;15.10;6.83;;;;;;;30.63;39.81;101400.25;5041245;28;20213;-69
2021/07/16 07:12:18;;;;;;;12.67;6.33;;;;;;;30.43;40.21;101394.25;5040690;28;20196;-69
2021/07/16 07:14:43;;;;;;;12.20;7.80;;;;;;;30.46;40.40;101394.13;5040923;28;20170;-68
2021/07/16 07:17:09;;;;;;;11.97;7.03;;;;;;;29.27;42.69;101411.19;5041236;28;20343;-68
2021/07/16 07:19:34;;;;;;;13.37;6.90;;;;;;;28.16;45.35;101408.38;5040820;28;20272;-68
2021/07/16 07:22:00;;;;;;;13.43;7.40;;;;;;;28.73;44.53;101402.56;5040567;28;20170;-68
2021/07/16 07:24:25;;;;;;;12.33;6.40;;;;;;;29.20;43.46;101406.16;5077162;28;20301;-68
2021/07/16 07:26:54;;;;;;;13.83;6.47;;;;;;;29.83;41.87;101414.13;5080472;28;20169;-68
2021/07/16 07:29:19;;;;;;;12.87;6.30;;;;;;;30.94;39.43;101412.53;5080581;28;20168;-67
2021/07/16 07:31:45;;;;;;;10.83;5.90;;;;;;;31.09;39.42;101423.31;5080288;28;20407;-67
2021/07/16 07:34:12;;;;;;;11.87;6.30;;;;;;;31.93;37.47;101423.94;5080124;28;20196;-67
2021/07/16 07:36:37;;;;;;;10.70;6.20;;;;;;;30.56;40.39;101419.47;5080589;28;20169;-67
2021/07/16 07:39:03;;;;;;;12.93;6.87;;;;;;;30.91;39.45;101410.91;5080116;28;20800;-66
2021/07/16 07:41:29;;;;;;;12.07;6.20;;;;;;;31.66;38.10;101419.47;5079474;28;20161;-66
2021/07/16 07:43:56;;;;;;;10.20;5.47;;;;;;;30.35;41.28;101420.78;5075263;28;20456;-67
2021/07/16 07:46:21;;;;;;;16.20;7.57;;;;;;;29.06;43.96;101425.78;5059879;28;20176;-65
2021/07/16 07:48:47;;;;;;;11.63;6.27;;;;;;;30.76;40.79;101430.78;5067066;28;20420;-66
2021/07/16 07:51:12;;;;;;;11.63;6.60;;;;;;;30.28;41.33;101428.38;5075593;28;20404;-66
2021/07/16 07:53:37;;;;;;;12.20;6.07;;;;;;;29.29;43.43;101437.00;5059910;28;20554;-66
2021/07/16 07:56:03;;;;;;;13.83;7.20;;;;;;;28.84;45.14;101444.03;5069214;28;20184;-66
2021/07/16 07:58:28;;;;;;;11.50;6.00;;;;;;;30.17;41.03;101425.50;5080458;28;20187;-66
2021/07/16 08:00:54;;;;;;;12.30;6.23;;;;;;;31.06;39.34;101424.38;5079999;28;20233;-66
2021/07/16 08:03:19;;;;;;;7.77;5.57;;;;;;;31.91;37.67;101414.09;5079877;28;20275;-66
2021/07/16 08:05:44;;;;;;;10.30;5.30;;;;;;;31.97;36.64;101420.03;5060860;28;20240;-66
2021/07/16 08:08:10;;;;;;;12.30;5.90;;;;;;;32.70;35.84;101421.13;5059710;28;20170;-66
2021/07/16 08:10:35;;;;;;;13.03;6.57;;;;;;;35.13;31.53;101427.50;5059687;28;20201;-66
2021/07/16 08:13:00;;;;;;;11.90;6.13;;;;;;;33.17;33.72;101441.06;5059914;28;20181;-65
2021/07/16 08:15:26;;;;;;;13.67;7.20;;;;;;;33.31;34.09;101444.59;5059709;28;20177;-66
2021/07/16 08:17:52;;;;;;;14.50;6.47;;;;;;;30.88;38.84;101451.50;5059718;28;20174;-65
2021/07/16 08:20:17;;;;;;;10.73;5.57;;;;;;;31.07;39.10;101444.97;5060168;28;20165;-65
2021/07/16 08:22:43;;;;;;;11.50;6.30;;;;;;;30.98;39.41;101453.59;5077549;28;20185;-67
2021/07/16 08:25:09;;;;;;;13.30;6.20;;;;;;;30.83;39.24;101450.09;5074448;28;20233;-67
2021/07/16 08:27:35;;;;;;;10.43;6.07;;;;;;;29.71;41.61;101470.38;5049728;28;20512;-67
2021/07/16 08:30:01;;;;;;;13.30;6.00;;;;;;;31.36;38.51;101458.31;5046908;28;20440;-66
2021/07/16 08:32:26;;;;;;;13.17;7.33;;;;;;;32.33;36.61;101453.50;5059360;28;20223;-65
2021/07/16 08:34:51;;;;;;;12.00;6.13;;;;;;;32.23;37.14;101445.19;5047208;28;20177;-65
2021/07/16 08:37:16;;;;;;;13.60;6.03;;;;;;;33.13;35.48;101442.28;5039398;28;20163;-66
2021/07/16 08:39:42;;;;;;;10.80;6.00;;;;;;;33.10;35.71;101439.81;5039309;28;20442;-66
2021/07/16 08:42:08;;;;;;;10.97;6.10;;;;;;;33.13;35.36;101441.44;5041753;28;20436;-65
2021/07/16 08:44:35;;;;;;;11.00;6.13;;;;;;;34.16;33.67;101438.91;5058736;28;20197;-67
2021/07/16 08:47:01;;;;;;;8.00;6.10;;;;;;;34.10;33.25;101438.53;5059203;28;20408;-66
2021/07/16 08:49:27;;;;;;;11.70;6.27;;;;;;;33.08;35.13;101439.94;5059373;28;20682;-66
2021/07/16 08:51:52;;;;;;;9.80;5.07;;;;;;;34.13;33.68;101432.91;5058916;28;20501;-66
2021/07/16 08:54:19;;;;;;;9.30;5.60;;;;;;;34.82;32.12;101435.47;5058023;28;20170;-66
2021/07/16 08:56:45;;;;;;;9.97;6.63;;;;;;;35.03;31.27;101431.97;5076367;28;20172;-66
2021/07/16 08:59:13;;;;;;;10.40;5.47;;;;;;;33.15;34.73;101445.75;5059294;28;20807;-66
2021/07/16 09:01:40;;;;;;;7.37;4.90;;;;;;;34.47;32.87;101436.50;5058677;28;20462;-67
2021/07/16 09:04:07;;;;;;;9.17;5.73;;;;;;;33.85;33.56;101430.53;5059002;28;20789;-68
2021/07/16 09:06:55;;;;;;;9.10;5.40;;;;;;;33.30;33.81;101441.06;5058599;28;20416;-67
2021/07/16 09:09:23;;;;;;;11.03;5.60;;;;;;;33.46;34.02;101453.38;5058740;28;20479;-67
2021/07/16 09:11:53;;;;;;;7.40;5.17;;;;;;;33.57;33.69;101459.69;5058561;28;20416;-66
2021/07/16 09:14:19;;;;;;;9.30;5.77;;;;;;;32.67;35.77;101459.16;5058546;28;20454;-66
2021/07/16 09:16:57;;;;;;;9.47;5.20;;;;;;;34.35;32.88;101445.59;5058498;28;20405;-69
2021/07/16 09:19:31;;;;;;;8.80;5.40;;;;;;;32.94;35.52;101437.41;5058617;28;20412;-67
2021/07/16 09:22:09;;;;;;;8.43;5.20;;;;;;;33.14;35.40;101443.13;5058468;28;20434;-67
2021/07/16 09:24:35;;;;;;;8.90;5.73;;;;;;;34.31;33.39;101447.69;5057369;28;20471;-67
2021/07/16 09:27:02;;;;;;;8.47;5.43;;;;;;;33.56;33.98;101451.72;5058317;28;20416;-67
2021/07/16 09:29:32;;;;;;;9.80;5.50;;;;;;;34.34;32.23;101452.88;5058247;28;20827;-67
2021/07/16 09:32:02;;;;;;;6.80;4.83;;;;;;;34.27;32.77;101451.59;5057465;28;20454;-67
2021/07/16 09:34:28;;;;;;;11.10;5.27;;;;;;;34.86;31.64;101447.78;5046348;28;20715;-67
2021/07/16 09:36:53;;;;;;;9.87;5.90;;;;;;;35.04;31.70;101447.25;5038300;28;20498;-67
2021/07/16 09:39:20;;;;;;;9.70;6.33;;;;;;;33.24;34.50;101453.16;5038270;28;20185;-67
2021/07/16 09:41:51;;;;;;;11.50;5.33;;;;;;;32.68;35.74;101455.50;5037997;28;20179;-67
2021/07/16 09:44:28;;;;;;;13.67;7.40;;;;;;;32.98;35.58;101451.53;5037708;28;20547;-66
2021/07/16 09:47:18;;;;;;;9.83;5.87;;;;;;;32.44;36.81;101459.00;5037866;28;20436;-66
2021/07/16 09:50:03;;;;;;;10.03;5.67;;;;;;;32.66;36.04;101463.69;5037969;28;20412;-66
2021/07/16 09:52:28;;;;;;;8.23;5.90;;;;;;;32.95;36.34;101457.16;5037816;28;20511;-66
2021/07/16 09:55:10;;;;;;;9.17;5.70;;;;;;;33.80;34.53;101451.69;5041862;28;20876;-66
2021/07/16 09:57:43;;;;;;;11.80;5.80;;;;;;;33.52;34.70;101447.53;5038016;28;20166;-71
2021/07/16 10:00:20;;;;;;;8.47;6.07;;;;;;;35.57;32.27;101447.28;5037422;28;20429;-65
2021/07/16 10:02:50;;;;;;;7.77;6.37;;;;;;;34.19;34.34;101449.53;5037925;28;20681;-71
2021/07/16 10:05:16;;;;;;;12.80;7.77;;;;;;;32.91;36.78;101462.78;5037499;28;20488;-69
2021/07/16 10:07:43;;;;;;;10.20;6.37;;;;;;;34.27;34.23;101457.00;5037821;28;20449;-69
2021/07/16 10:10:13;;;;;;;9.40;6.10;;;;;;;33.90;35.24;101447.25;5037878;28;20599;-69
2021/07/16 10:12:40;;;;;;;9.80;6.40;;;;;;;34.98;33.21;101442.31;5037380;28;20428;-70
2021/07/16 10:15:08;;;;;;;13.57;6.70;;;;;;;34.05;34.87;101442.47;5037773;28;20432;-70
2021/07/16 10:17:34;;;;;;;9.90;6.27;;;;;;;33.18;37.05;101447.31;5037516;28;20417;-69
2021/07/16 10:19:59;;;;;;;9.77;6.50;;;;;;;34.27;35.93;101439.91;5037376;28;20706;-71
2021/07/16 10:22:24;;;;;;;7.97;5.60;;;;;;;33.47;36.42;101442.44;5037341;28;20253;-70
2021/07/16 10:24:50;;;;;;;12.30;6.27;;;;;;;34.71;34.05;101438.19;5037265;28;20274;-70
2021/07/16 10:27:15;;;;;;;14.70;7.93;;;;;;;34.03;35.43;101449.88;5037210;28;20174;-70
2021/07/16 10:29:45;;;;;;;10.90;6.80;;;;;;;32.60;37.50;101460.56;5040247;28;20170;-70
2021/07/16 10:32:11;;;;;;;12.47;6.30;;;;;;;32.69;37.57;101463.50;5042000;28;20189;-69
2021/07/16 10:34:38;;;;;;;8.53;6.00;;;;;;;33.37;36.59;101463.91;5042284;28;20412;-69
2021/07/16 10:37:09;;;;;;;9.50;6.20;;;;;;;32.84;37.05;101461.53;5041640;28;20471;-70
2021/07/16 10:39:53;;;;;;;9.97;6.30;;;;;;;32.44;38.06;101469.78;5041537;28;20409;-70
2021/07/16 10:42:28;;;;;;;10.87;5.90;;;;;;;33.00;37.29;101473.88;5041572;28;20479;-70
2021/07/16 10:44:58;;;;;;;10.80;6.10;;;;;;;33.02;36.78;101475.50;5041651;28;20771;-70
2021/07/16 10:47:42;;;;;;;10.57;6.20;;;;;;;34.22;36.10;101470.03;5041390;28;20508;-69
2021/07/16 10:50:32;;;;;;;11.20;5.70;;;;;;;33.44;36.45;101475.13;5041507;28;20678;-69
2021/07/16 10:52:58;;;;;;;10.57;6.13;;;;;;;33.07;36.62;101477.84;5041224;28;20412;-70
2021/07/16 10:55:29;;;;;;;12.93;7.00;;;;;;;33.31;36.29;101475.19;5041486;28;20818;-69
2021/07/16 10:57:54;;;;;;;11.90;6.43;;;;;;;33.65;36.40;101480.75;5041518;28;20320;-69
2021/07/16 11:00:35;;;;;;;9.57;6.00;;;;;;;33.71;36.19;101487.53;5040977;28;20525;-69
2021/07/16 11:03:10;;;;;;;17.10;6.77;;;;;;;34.67;34.08;101477.34;5040960;28;20177;-69
2021/07/16 11:05:38;;;;;;;9.37;6.20;;;;;;;35.05;33.91;101479.63;5040993;28;20522;-69
2021/07/16 11:08:05;;;;;;;14.43;6.57;;;;;;;33.37;36.77;101490.94;5041049;28;20676;-69
2021/07/16 11:10:51;;;;;;;9.30;5.90;;;;;;;33.21;36.93;101493.91;5041124;28;20409;-70
2021/07/16 11:13:38;;;;;;;12.33;6.23;;;;;;;32.49;38.57;101489.22;5040146;28;20844;-70
2021/07/16 11:16:15;;;;;;;10.33;7.70;;;;;;;32.88;37.80;101492.75;5041063;28;20420;-70